createdAt,value
2023-01-10T00:01:44.195Z,6.10
2023-01-10T00:04:12.234Z,6.20
2023-01-10T00:06:40.318Z,6.20
2023-01-10T00:09:08.959Z,6.20
2023-01-10T00:11:54.329Z,6.20
2023-01-10T00:14:22.417Z,6.30
2023-01-10T00:16:51.735Z,6.30
2023-01-10T00:19:19.771Z,6.30
2023-01-10T00:21:47.736Z,6.30
2023-01-10T00:24:19.976Z,6.30
2023-01-10T00:26:51.963Z,6.30
2023-01-10T00:29:20.504Z,6.30
2023-01-10T00:31:49.132Z,6.30
2023-01-10T00:34:18.602Z,6.20
2023-01-10T00:36:47.924Z,6.20
2023-01-10T00:39:18.139Z,6.30
2023-01-10T00:42:03.364Z,6.20
2023-01-10T00:44:31.505Z,6.20
2023-01-10T00:46:59.467Z,6.20
2023-01-10T00:49:28.837Z,6.10
2023-01-10T00:51:58.254Z,6.10
2023-01-10T00:54:26.620Z,6.10
2023-01-10T00:56:54.698Z,6.10
2023-01-10T00:59:22.882Z,6.00
2023-01-10T01:01:51.278Z,6.10
2023-01-10T01:04:19.432Z,6.10
2023-01-10T01:06:50.720Z,6.10
2023-01-10T01:09:18.821Z,6.10
2023-01-10T01:11:46.825Z,6.10
2023-01-10T01:14:14.792Z,6.10
2023-01-10T01:16:42.807Z,6.10
2023-01-10T01:19:11.216Z,6.10
2023-01-10T01:21:39.307Z,6.10
2023-01-10T01:24:09.833Z,6.10
2023-01-10T01:26:37.886Z,6.00
2023-01-10T01:29:05.879Z,6.00
2023-01-10T01:31:33.916Z,6.00
2023-01-10T01:34:02.112Z,6.00
2023-01-10T01:36:30.129Z,5.90
2023-01-10T01:38:58.116Z,5.80
2023-01-10T01:41:44.780Z,5.90
2023-01-10T01:44:17.850Z,5.90
2023-01-10T01:46:48.701Z,5.90
2023-01-10T01:49:20.279Z,5.90
2023-01-10T01:51:50.164Z,5.90
2023-01-10T01:54:19.570Z,5.90
2023-01-10T01:56:52.575Z,5.90
2023-01-10T01:59:24.254Z,5.90
2023-01-10T02:01:57.240Z,5.90
2023-01-10T02:04:30.017Z,5.90
2023-01-10T02:06:59.394Z,5.80
2023-01-10T02:09:33.581Z,5.80
2023-01-10T02:12:04.121Z,5.80
2023-01-10T02:14:33.229Z,5.80
2023-01-10T02:17:01.234Z,5.80
2023-01-10T02:19:38.577Z,5.80
2023-01-10T02:22:49.473Z,5.80
2023-01-10T02:25:47.231Z,5.80
2023-01-10T02:28:55.142Z,5.80
2023-01-10T02:31:42.478Z,5.90
2023-01-10T02:34:17.014Z,5.80
2023-01-10T02:36:52.022Z,5.90
2023-01-10T02:39:29.949Z,5.90
2023-01-10T02:42:03.962Z,6.00
2023-01-10T02:44:39.043Z,6.00
2023-01-10T02:47:09.510Z,6.00
2023-01-10T02:49:45.088Z,6.00
2023-01-10T02:52:17.079Z,6.00
2023-01-10T02:54:45.400Z,6.00
2023-01-10T02:57:34.564Z,5.90
2023-01-10T03:00:26.292Z,5.80
2023-01-10T03:03:09.973Z,5.80
2023-01-10T03:05:52.953Z,5.80
2023-01-10T03:08:29.020Z,5.80
2023-01-10T03:11:00.823Z,5.80
2023-01-10T03:13:35.854Z,5.70
2023-01-10T03:16:05.804Z,5.60
2023-01-10T03:18:38.305Z,5.50
2023-01-10T03:21:09.655Z,5.40
2023-01-10T03:23:38.184Z,5.30
2023-01-10T03:26:10.115Z,5.20
2023-01-10T03:28:45.812Z,5.10
2023-01-10T03:31:18.400Z,5.00
2023-01-10T03:33:46.721Z,5.00
2023-01-10T03:36:23.464Z,5.00
2023-01-10T03:38:54.982Z,5.00
2023-01-10T03:41:34.419Z,5.00
2023-01-10T03:44:29.943Z,5.00
2023-01-10T03:47:05.847Z,4.90
2023-01-10T03:49:36.096Z,4.90
2023-01-10T03:52:06.772Z,4.80
2023-01-10T03:54:34.796Z,4.80
2023-01-10T03:57:02.979Z,4.80
2023-01-10T03:59:31.644Z,4.70
2023-01-10T04:01:59.804Z,4.70
2023-01-10T04:04:28.009Z,4.70
2023-01-10T04:06:55.981Z,4.70
2023-01-10T04:09:25.495Z,4.70
2023-01-10T04:11:53.463Z,4.80
2023-01-10T04:14:21.473Z,4.80
2023-01-10T04:16:49.438Z,4.80
2023-01-10T04:19:17.447Z,4.90
2023-01-10T04:21:45.660Z,4.90
2023-01-10T04:24:13.885Z,4.90
2023-01-10T04:26:43.480Z,4.90
2023-01-10T04:29:11.784Z,4.80
2023-01-10T04:31:40.897Z,4.90
2023-01-10T04:34:09.234Z,4.90
2023-01-10T04:36:37.551Z,4.90
2023-01-10T04:39:06.008Z,4.90
2023-01-10T04:41:34.010Z,5.00
2023-01-10T04:44:03.370Z,5.10
2023-01-10T04:46:31.881Z,5.10
2023-01-10T04:49:00.313Z,5.10
2023-01-10T04:51:28.851Z,5.20
2023-01-10T04:53:57.344Z,5.20
2023-01-10T04:56:26.547Z,5.20
2023-01-10T04:58:54.991Z,5.20
2023-01-10T05:01:26.122Z,5.30
2023-01-10T05:03:56.047Z,5.30
2023-01-10T05:06:25.339Z,5.20
2023-01-10T05:08:53.491Z,5.10
2023-01-10T05:11:21.523Z,5.10
2023-01-10T05:13:49.617Z,5.10
2023-01-10T05:16:18.184Z,5.10
2023-01-10T05:18:47.570Z,5.10
2023-01-10T05:21:15.785Z,5.20
2023-01-10T05:23:44.190Z,5.20
2023-01-10T05:26:13.965Z,5.20
2023-01-10T05:28:42.797Z,5.20
2023-01-10T05:31:13.132Z,5.20
2023-01-10T05:33:44.526Z,5.20
2023-01-10T05:36:13.923Z,5.20
2023-01-10T05:38:41.992Z,5.20
2023-01-10T05:41:10.322Z,5.20
2023-01-10T05:43:38.354Z,5.20
2023-01-10T05:46:06.628Z,5.20
2023-01-10T05:48:34.718Z,5.30
2023-01-10T05:51:02.860Z,5.20
2023-01-10T05:53:32.233Z,5.20
2023-01-10T05:56:01.618Z,5.20
2023-01-10T05:58:30.692Z,5.30
2023-01-10T06:00:59.377Z,5.30
2023-01-10T06:03:27.422Z,5.30
2023-01-10T06:05:55.682Z,5.20
2023-01-10T06:08:24.211Z,5.20
2023-01-10T06:10:53.741Z,5.10
2023-01-10T06:13:22.026Z,5.10
2023-01-10T06:15:50.691Z,5.10
2023-01-10T06:18:18.687Z,5.00
2023-01-10T06:20:47.032Z,4.90
2023-01-10T06:23:15.009Z,4.80
2023-01-10T06:25:43.075Z,4.80
2023-01-10T06:28:14.253Z,4.80
2023-01-10T06:30:43.377Z,4.90
2023-01-10T06:33:12.472Z,4.90
2023-01-10T06:35:40.579Z,4.90
2023-01-10T06:38:09.703Z,4.90
2023-01-10T06:40:37.748Z,4.90
2023-01-10T06:43:05.719Z,5.00
2023-01-10T06:45:35.267Z,5.00
2023-01-10T06:48:03.226Z,5.00
2023-01-10T06:50:31.836Z,5.00
2023-01-10T06:53:01.428Z,5.00
2023-01-10T06:55:30.463Z,4.90
2023-01-10T06:57:59.131Z,4.80
2023-01-10T07:00:28.463Z,4.70
2023-01-10T07:02:59.796Z,4.60
2023-01-10T07:05:29.114Z,4.70
2023-01-10T07:07:58.327Z,4.70
2023-01-10T07:10:26.321Z,4.60
2023-01-10T07:12:56.291Z,4.70
2023-01-10T07:15:24.352Z,4.70
2023-01-10T07:17:52.344Z,4.80
2023-01-10T07:20:21.732Z,4.80
2023-01-10T07:22:54.932Z,4.90
2023-01-10T07:25:23.094Z,4.90
2023-01-10T07:27:51.167Z,4.90
2023-01-10T07:30:19.432Z,5.00
2023-01-10T07:32:47.407Z,5.10
2023-01-10T07:35:15.525Z,5.10
2023-01-10T07:37:44.955Z,5.10
2023-01-10T07:40:13.757Z,5.10
2023-01-10T07:42:41.734Z,5.10
2023-01-10T07:45:10.572Z,5.20
2023-01-10T07:47:38.659Z,5.20
2023-01-10T07:50:07.747Z,5.20
2023-01-10T07:52:35.729Z,5.20
2023-01-10T07:55:05.757Z,5.20
2023-01-10T07:57:33.746Z,5.20
2023-01-10T08:00:01.761Z,5.20
2023-01-10T08:02:29.841Z,5.20
2023-01-10T08:04:57.882Z,5.20
2023-01-10T08:07:25.872Z,5.20
2023-01-10T08:09:53.892Z,5.20
2023-01-10T08:12:24.632Z,5.30
2023-01-10T08:14:52.932Z,5.30
2023-01-10T08:17:21.476Z,5.30
2023-01-10T08:19:49.539Z,5.30
2023-01-10T08:22:17.600Z,5.40
2023-01-10T08:24:45.612Z,5.50
2023-01-10T08:27:13.663Z,5.50
2023-01-10T08:29:43.284Z,5.40
2023-01-10T08:32:11.752Z,5.50
2023-01-10T08:34:39.765Z,5.50
2023-01-10T08:37:07.772Z,5.50
2023-01-10T08:39:36.148Z,5.50
2023-01-10T08:42:04.149Z,5.60
2023-01-10T08:44:32.360Z,5.50
2023-01-10T08:47:01.723Z,5.60
2023-01-10T08:49:29.763Z,5.50
2023-01-10T08:51:57.930Z,5.50
2023-01-10T08:54:26.062Z,5.50
2023-01-10T08:56:54.061Z,5.60
2023-01-10T08:59:22.043Z,5.60
2023-01-10T09:01:50.084Z,5.60
2023-01-10T09:04:19.441Z,5.60
2023-01-10T09:06:47.454Z,5.60
2023-01-10T09:09:15.445Z,5.60
2023-01-10T09:11:43.465Z,5.70
2023-01-10T09:14:11.423Z,5.70
2023-01-10T09:16:39.457Z,5.70
2023-01-10T09:19:07.470Z,5.80
2023-01-10T09:21:36.804Z,5.80
2023-01-10T09:24:05.114Z,5.90
2023-01-10T09:26:33.089Z,5.90
2023-01-10T09:29:01.100Z,5.80
2023-01-10T09:31:29.168Z,5.80
2023-01-10T09:33:57.189Z,5.80
2023-01-10T09:36:25.167Z,5.90
2023-01-10T09:38:54.538Z,5.90
2023-01-10T09:41:50.499Z,5.90
2023-01-10T09:44:21.991Z,5.90
2023-01-10T09:46:56.861Z,5.90
2023-01-10T09:49:37.423Z,5.90
2023-01-10T09:52:11.292Z,5.90
2023-01-10T09:54:43.299Z,6.00
2023-01-10T09:57:17.119Z,6.00
2023-01-10T09:59:45.762Z,6.00
2023-01-10T10:02:24.971Z,5.90
2023-01-10T10:05:05.617Z,6.00
2023-01-10T10:07:33.717Z,6.00
2023-01-10T10:10:03.466Z,6.10
2023-01-10T10:12:43.367Z,6.00
2023-01-10T10:15:21.309Z,6.10
2023-01-10T10:17:56.956Z,6.00
2023-01-10T10:20:32.537Z,6.00
2023-01-10T10:23:14.198Z,6.00
2023-01-10T10:25:55.533Z,6.00
2023-01-10T10:28:54.845Z,6.00
2023-01-10T10:31:32.556Z,6.10
2023-01-10T10:34:12.261Z,6.10
2023-01-10T10:36:47.000Z,6.10
2023-01-10T10:39:18.123Z,6.20
2023-01-10T10:41:50.564Z,6.20
2023-01-10T10:44:37.123Z,6.20
2023-01-10T10:47:15.309Z,6.10
2023-01-10T10:49:47.825Z,6.10
2023-01-10T10:52:24.819Z,6.10
2023-01-10T10:54:53.912Z,6.10
2023-01-10T10:57:27.228Z,6.10
2023-01-10T10:59:56.832Z,6.20
2023-01-10T11:02:27.956Z,6.20
2023-01-10T11:04:59.610Z,6.20
2023-01-10T11:07:32.909Z,6.20
2023-01-10T11:10:11.800Z,6.10
2023-01-10T11:12:45.295Z,6.10
2023-01-10T11:15:13.297Z,6.10
2023-01-10T11:17:42.454Z,6.00
2023-01-10T11:20:17.251Z,6.10
2023-01-10T11:22:50.154Z,6.20
2023-01-10T11:25:20.349Z,6.10
2023-01-10T11:27:52.512Z,6.10
2023-01-10T11:30:23.948Z,6.10
2023-01-10T11:32:55.475Z,6.10
2023-01-10T11:35:27.856Z,6.00
2023-01-10T11:38:04.276Z,6.00
2023-01-10T11:40:33.577Z,6.10
2023-01-10T11:43:25.574Z,6.00
2023-01-10T11:45:56.206Z,6.00
2023-01-10T11:48:50.325Z,6.00
2023-01-10T11:51:20.941Z,6.00
2023-01-10T11:53:51.370Z,6.10
2023-01-10T11:56:26.949Z,6.10
2023-01-10T11:58:58.288Z,6.10
2023-01-10T12:01:35.879Z,6.20
2023-01-10T12:04:04.179Z,6.30
2023-01-10T12:06:33.299Z,6.30
2023-01-10T12:09:01.354Z,6.40
2023-01-10T12:11:32.350Z,6.50
2023-01-10T12:14:03.194Z,6.40
2023-01-10T12:16:33.372Z,6.40
2023-01-10T12:19:02.904Z,6.40
2023-01-10T12:21:40.254Z,6.40
2023-01-10T12:24:18.027Z,6.40
2023-01-10T12:26:47.391Z,6.40
2023-01-10T12:29:21.672Z,6.40
2023-01-10T12:31:51.968Z,6.40
2023-01-10T12:34:23.414Z,6.40
2023-01-10T12:37:02.148Z,6.40
2023-01-10T12:39:34.964Z,6.40
2023-01-10T12:42:30.318Z,6.40
2023-01-10T12:45:04.927Z,6.30
2023-01-10T12:47:39.345Z,6.40
2023-01-10T12:50:14.928Z,6.40
2023-01-10T12:52:47.450Z,6.40
2023-01-10T12:55:16.909Z,6.30
2023-01-10T12:57:51.725Z,6.40
2023-01-10T13:00:25.376Z,6.40
2023-01-10T13:02:55.901Z,6.50
2023-01-10T13:05:25.931Z,6.40
2023-01-10T13:08:00.468Z,6.40
2023-01-10T13:10:29.994Z,6.40
2023-01-10T13:13:03.070Z,6.30
2023-01-10T13:15:36.162Z,6.40
2023-01-10T13:18:07.404Z,6.40
2023-01-10T13:20:45.843Z,6.40
2023-01-10T13:23:31.244Z,6.50
2023-01-10T13:26:02.844Z,6.50
2023-01-10T13:28:33.391Z,6.50
2023-01-10T13:31:06.189Z,6.50
2023-01-10T13:33:40.284Z,6.60
2023-01-10T13:36:17.980Z,6.60
2023-01-10T13:38:51.502Z,6.60
2023-01-10T13:41:38.132Z,6.60
2023-01-10T13:44:09.959Z,6.50
2023-01-10T13:46:48.780Z,6.50
2023-01-10T13:49:42.794Z,6.50
2023-01-10T13:52:34.007Z,6.50
2023-01-10T13:55:20.835Z,6.50
2023-01-10T13:57:53.937Z,6.50
2023-01-10T14:00:43.250Z,6.50
2023-01-10T14:03:52.794Z,6.40
2023-01-10T14:06:40.889Z,6.40
2023-01-10T14:09:33.236Z,6.40
2023-01-10T14:12:03.889Z,6.50
2023-01-10T14:14:37.176Z,6.50
2023-01-10T14:17:16.759Z,6.40
2023-01-10T14:19:46.746Z,6.40
2023-01-10T14:22:31.019Z,6.40
2023-01-10T14:25:00.356Z,6.40
2023-01-10T14:27:37.410Z,6.30
2023-01-10T14:30:08.313Z,6.30
2023-01-10T14:32:39.378Z,6.30
2023-01-10T14:35:10.133Z,6.30
2023-01-10T14:37:44.956Z,6.30
2023-01-10T14:40:23.020Z,6.20
2023-01-10T14:42:52.514Z,6.10
2023-01-10T14:45:31.557Z,6.10
2023-01-10T14:47:59.634Z,6.10
2023-01-10T14:50:32.429Z,6.10
2023-01-10T14:53:01.854Z,6.00
2023-01-10T14:55:29.860Z,6.00
2023-01-10T14:57:59.050Z,6.00
2023-01-10T15:00:29.766Z,6.00
2023-01-10T15:03:01.726Z,5.90
2023-01-10T15:05:31.969Z,5.90
2023-01-10T15:08:18.274Z,5.90
2023-01-10T15:10:48.090Z,5.90
2023-01-10T15:13:19.773Z,5.90
2023-01-10T15:15:50.817Z,5.80
2023-01-10T15:18:34.056Z,5.80
2023-01-10T15:21:02.318Z,5.70
2023-01-10T15:23:37.085Z,5.70
2023-01-10T15:26:09.580Z,5.70
2023-01-10T15:28:38.115Z,5.70
2023-01-10T15:31:07.467Z,5.70
2023-01-10T15:33:37.861Z,5.70
2023-01-10T15:36:08.345Z,5.60
2023-01-10T15:38:42.534Z,5.60
2023-01-10T15:41:11.112Z,5.60
2023-01-10T15:43:40.240Z,5.60
2023-01-10T15:46:20.236Z,5.70
2023-01-10T15:48:58.929Z,5.70
2023-01-10T15:51:29.446Z,5.50
2023-01-10T15:54:04.313Z,5.60
2023-01-10T15:56:38.064Z,5.60
2023-01-10T15:59:20.345Z,5.60
2023-01-10T16:01:55.586Z,5.60
2023-01-10T16:04:24.217Z,5.50
2023-01-10T16:06:55.965Z,5.50
2023-01-10T16:09:25.455Z,5.50
2023-01-10T16:12:12.003Z,5.50
2023-01-10T16:14:40.011Z,5.50
2023-01-10T16:17:08.053Z,5.50
2023-01-10T16:19:36.083Z,5.40
2023-01-10T16:22:04.094Z,5.40
2023-01-10T16:24:35.969Z,5.40
2023-01-10T16:27:06.728Z,5.40
2023-01-10T16:29:35.015Z,5.40
2023-01-10T16:32:03.002Z,5.40
2023-01-10T16:34:33.977Z,5.50
2023-01-10T16:37:01.964Z,5.40
2023-01-10T16:39:29.981Z,5.40
2023-01-10T16:42:16.706Z,5.40
2023-01-10T16:44:45.462Z,5.40
2023-01-10T16:47:13.460Z,5.40
2023-01-10T16:49:42.351Z,5.40
2023-01-10T16:52:14.082Z,5.40
2023-01-10T16:54:42.056Z,5.40
2023-01-10T16:57:12.504Z,5.40
2023-01-10T16:59:40.570Z,5.40
2023-01-10T17:02:18.899Z,5.40
2023-01-10T17:04:46.993Z,5.40
2023-01-10T17:07:14.981Z,5.30
2023-01-10T17:09:42.977Z,5.40
2023-01-10T17:12:19.410Z,5.40
2023-01-10T17:14:48.622Z,5.40
2023-01-10T17:17:16.644Z,5.30
2023-01-10T17:19:44.695Z,5.30
2023-01-10T17:22:12.717Z,5.30
2023-01-10T17:24:40.688Z,5.30
2023-01-10T17:27:08.742Z,5.30
2023-01-10T17:29:38.225Z,5.30
2023-01-10T17:32:06.597Z,5.30
2023-01-10T17:34:37.304Z,5.30
2023-01-10T17:37:05.364Z,5.30
2023-01-10T17:39:33.547Z,5.40
2023-01-10T17:42:01.649Z,5.40
2023-01-10T17:44:29.649Z,5.40
2023-01-10T17:46:59.027Z,5.40
2023-01-10T17:49:27.128Z,5.40
2023-01-10T17:51:55.249Z,5.30
2023-01-10T17:54:23.280Z,5.40
2023-01-10T17:56:51.269Z,5.40
2023-01-10T17:59:19.324Z,5.40
2023-01-10T18:01:47.415Z,5.40
2023-01-10T18:04:16.842Z,5.40
2023-01-10T18:06:45.037Z,5.40
2023-01-10T18:09:13.036Z,5.30
2023-01-10T18:11:41.561Z,5.30
2023-01-10T18:14:23.428Z,5.40
2023-01-10T18:16:51.572Z,5.40
2023-01-10T18:19:20.933Z,5.40
2023-01-10T18:21:49.351Z,5.40
2023-01-10T18:24:17.341Z,5.40
2023-01-10T18:26:45.338Z,5.40
2023-01-10T18:29:13.336Z,5.40
2023-01-10T18:31:42.083Z,5.40
2023-01-10T18:34:10.435Z,5.30
2023-01-10T18:36:40.104Z,5.30
2023-01-10T18:39:08.119Z,5.30
2023-01-10T18:41:36.100Z,5.30
2023-01-10T18:44:04.178Z,5.40
2023-01-10T18:46:32.413Z,5.30
2023-01-10T18:49:00.545Z,5.30
2023-01-10T18:51:28.529Z,5.30
2023-01-10T18:53:57.892Z,5.30
2023-01-10T18:56:25.852Z,5.30
2023-01-10T18:58:53.846Z,5.30
2023-01-10T19:01:22.871Z,5.30
2023-01-10T19:03:51.214Z,5.30
2023-01-10T19:06:22.602Z,5.40
2023-01-10T19:08:51.683Z,5.30
2023-01-10T19:11:21.127Z,5.30
2023-01-10T19:13:51.950Z,5.30
2023-01-10T19:16:21.904Z,5.30
2023-01-10T19:18:52.017Z,5.30
2023-01-10T19:21:20.296Z,5.30
2023-01-10T19:23:49.792Z,5.20
2023-01-10T19:26:18.242Z,5.30
2023-01-10T19:28:48.152Z,5.20
2023-01-10T19:31:17.173Z,5.30
2023-01-10T19:33:47.644Z,5.20
2023-01-10T19:36:16.461Z,5.30
2023-01-10T19:38:44.522Z,5.20
2023-01-10T19:41:14.124Z,5.30
2023-01-10T19:43:42.256Z,5.20
2023-01-10T19:46:13.385Z,5.20
2023-01-10T19:48:42.371Z,5.20
2023-01-10T19:51:12.532Z,5.20
2023-01-10T19:53:45.458Z,5.20
2023-01-10T19:56:18.383Z,5.20
2023-01-10T19:58:47.730Z,5.20
2023-01-10T20:01:19.624Z,5.20
2023-01-10T20:03:48.048Z,5.10
2023-01-10T20:06:19.852Z,5.20
2023-01-10T20:08:48.090Z,5.20
2023-01-10T20:11:17.695Z,5.10
2023-01-10T20:13:48.179Z,5.10
2023-01-10T20:16:19.907Z,5.00
2023-01-10T20:18:48.929Z,5.10
2023-01-10T20:21:18.628Z,5.00
2023-01-10T20:23:47.662Z,5.10
2023-01-10T20:26:17.574Z,5.10
2023-01-10T20:28:47.912Z,5.10
2023-01-10T20:31:19.258Z,5.00
2023-01-10T20:33:47.346Z,5.00
2023-01-10T20:36:17.410Z,5.00
2023-01-10T20:38:45.809Z,5.00
2023-01-10T20:41:15.874Z,4.90
2023-01-10T20:43:44.372Z,4.90
2023-01-10T20:46:14.167Z,4.90
2023-01-10T20:48:44.128Z,4.90
2023-01-10T20:51:14.496Z,4.90
2023-01-10T20:53:42.626Z,4.80
2023-01-10T20:56:13.822Z,4.80
2023-01-10T20:58:42.265Z,4.80
2023-01-10T21:01:12.453Z,4.80
2023-01-10T21:03:45.820Z,4.80
2023-01-10T21:06:14.830Z,4.90
2023-01-10T21:08:43.055Z,4.90
2023-01-10T21:11:13.956Z,4.80
2023-01-10T21:13:42.198Z,4.70
2023-01-10T21:16:13.031Z,4.70
2023-01-10T21:18:44.417Z,4.80
2023-01-10T21:21:15.892Z,4.80
2023-01-10T21:23:44.028Z,4.80
2023-01-10T21:26:14.304Z,4.80
2023-01-10T21:28:46.411Z,4.80
2023-01-10T21:31:16.743Z,4.80
2023-01-10T21:33:44.973Z,4.80
2023-01-10T21:36:14.594Z,4.90
2023-01-10T21:38:43.721Z,4.90
2023-01-10T21:41:14.385Z,4.90
2023-01-10T21:43:44.479Z,4.90
2023-01-10T21:46:13.102Z,4.90
2023-01-10T21:48:41.155Z,4.90
2023-01-10T21:51:09.150Z,4.80
2023-01-10T21:53:41.312Z,4.80
2023-01-10T21:56:09.771Z,4.80
2023-01-10T21:58:37.749Z,4.80
2023-01-10T22:01:06.092Z,4.80
2023-01-10T22:03:34.967Z,4.80
2023-01-10T22:06:03.472Z,4.80
2023-01-10T22:08:31.456Z,4.80
2023-01-10T22:11:00.806Z,4.80
2023-01-10T22:13:28.791Z,4.70
2023-01-10T22:15:59.596Z,4.80
2023-01-10T22:18:28.194Z,4.80
2023-01-10T22:20:56.709Z,4.80
2023-01-10T22:23:25.743Z,4.80
2023-01-10T22:26:02.731Z,4.70
2023-01-10T22:28:31.130Z,4.70
2023-01-10T22:30:59.444Z,4.80
2023-01-10T22:33:29.757Z,4.70
2023-01-10T22:35:58.316Z,4.80
2023-01-10T22:38:26.329Z,4.70
2023-01-10T22:40:54.324Z,4.80
2023-01-10T22:43:23.658Z,4.70
2023-01-10T22:45:51.672Z,4.70
2023-01-10T22:48:20.207Z,4.70
2023-01-10T22:50:49.847Z,4.80
2023-01-10T22:53:17.959Z,4.70
2023-01-10T22:55:45.990Z,4.80
2023-01-10T22:58:14.001Z,4.80
2023-01-10T23:00:43.357Z,4.80
2023-01-10T23:03:11.320Z,4.80
2023-01-10T23:05:39.351Z,4.80
2023-01-10T23:08:07.413Z,4.80
2023-01-10T23:10:35.451Z,4.80
2023-01-10T23:13:05.065Z,4.80
2023-01-10T23:15:33.127Z,4.80
2023-01-10T23:18:02.490Z,4.80
2023-01-10T23:20:30.589Z,4.80
2023-01-10T23:22:58.558Z,4.80
2023-01-10T23:25:26.652Z,4.80
2023-01-10T23:27:55.026Z,4.80
2023-01-10T23:30:26.704Z,4.80
2023-01-10T23:32:55.829Z,4.80
2023-01-10T23:35:25.244Z,4.80
2023-01-10T23:37:54.192Z,4.80
2023-01-10T23:40:22.216Z,4.80
2023-01-10T23:42:50.188Z,4.80
2023-01-10T23:45:18.380Z,4.70
2023-01-10T23:47:46.378Z,4.80
2023-01-10T23:50:14.376Z,4.70
2023-01-10T23:52:43.893Z,4.70
2023-01-10T23:55:11.898Z,4.70
2023-01-10T23:57:39.923Z,4.80
